createdAt,value
2019-03-12T00:02:25.024Z,101300.83
2019-03-12T00:04:53.929Z,101295.64
2019-03-12T00:07:23.609Z,101298.34
2019-03-12T00:09:53.824Z,101302.80
2019-03-12T00:12:22.438Z,101312.19
2019-03-12T00:14:50.936Z,101312.83
2019-03-12T00:17:19.499Z,101315.81
2019-03-12T00:19:48.111Z,101324.74
2019-03-12T00:22:16.665Z,101322.95
2019-03-12T00:24:45.189Z,101326.38
2019-03-12T00:27:13.729Z,101331.97
2019-03-12T00:29:42.332Z,101333.77
2019-03-12T00:32:10.888Z,101336.56
2019-03-12T00:34:39.499Z,101328.89
2019-03-12T00:37:10.319Z,101329.41
2019-03-12T00:39:38.820Z,101329.67
2019-03-12T00:42:07.381Z,101323.56
2019-03-12T00:44:36.027Z,101320.73
2019-03-12T00:47:04.825Z,101329.92
2019-03-12T00:49:33.461Z,101322.91
2019-03-12T00:52:02.111Z,101337.95
2019-03-12T00:54:30.621Z,101337.70
2019-03-12T00:56:59.615Z,101349.63
2019-03-12T00:59:28.195Z,101353.83
2019-03-12T01:01:56.758Z,101351.14
2019-03-12T01:04:25.363Z,101359.80
2019-03-12T01:06:54.030Z,101363.03
2019-03-12T01:09:22.605Z,101369.70
2019-03-12T01:11:51.088Z,101376.89
2019-03-12T01:14:19.717Z,101380.49
2019-03-12T01:16:48.231Z,101386.35
2019-03-12T01:19:16.900Z,101384.72
2019-03-12T01:21:45.538Z,101388.61
2019-03-12T01:24:14.156Z,101382.77
2019-03-12T01:26:44.791Z,101394.81
2019-03-12T01:29:13.439Z,101393.14
2019-03-12T01:31:42.040Z,101399.99
2019-03-12T01:34:10.734Z,101398.50
2019-03-12T01:36:39.290Z,101401.92
2019-03-12T01:39:08.066Z,101409.03
2019-03-12T01:41:36.680Z,101414.66
2019-03-12T01:44:05.400Z,101420.37
2019-03-12T01:46:33.954Z,101426.11
2019-03-12T01:49:02.499Z,101416.31
2019-03-12T01:51:31.400Z,101423.86
2019-03-12T01:54:00.205Z,101427.98
2019-03-12T01:56:28.737Z,101425.06
2019-03-12T01:58:57.358Z,101436.66
2019-03-12T02:01:25.988Z,101431.98
2019-03-12T02:03:54.527Z,101432.58
2019-03-12T02:06:23.038Z,101427.59
2019-03-12T02:08:51.691Z,101421.34
2019-03-12T02:11:20.292Z,101424.52
2019-03-12T02:13:48.961Z,101426.47
2019-03-12T02:16:17.872Z,101423.56
2019-03-12T02:18:46.616Z,101421.52
2019-03-12T02:21:15.367Z,101430.22
2019-03-12T02:23:43.979Z,101434.28
2019-03-12T02:26:12.597Z,101438.63
2019-03-12T02:28:41.177Z,101439.95
2019-03-12T02:31:09.848Z,101441.14
2019-03-12T02:33:38.392Z,101444.92
2019-03-12T02:36:07.014Z,101454.85
2019-03-12T02:38:35.611Z,101456.66
2019-03-12T02:41:04.283Z,101454.03
2019-03-12T02:43:32.912Z,101446.89
2019-03-12T02:46:01.490Z,101453.05
2019-03-12T02:48:30.048Z,101450.78
2019-03-12T02:50:58.659Z,101458.25
2019-03-12T02:53:27.215Z,101453.36
2019-03-12T02:55:55.865Z,101459.89
2019-03-12T02:58:24.483Z,101467.06
2019-03-12T03:00:53.132Z,101472.48
2019-03-12T03:03:21.677Z,101466.02
2019-03-12T03:05:54.951Z,101467.21
2019-03-12T03:08:25.592Z,101462.70
2019-03-12T03:10:54.282Z,101469.79
2019-03-12T03:13:22.934Z,101465.04
2019-03-12T03:15:51.453Z,101476.03
2019-03-12T03:18:20.042Z,101462.25
2019-03-12T03:20:48.596Z,101466.77
2019-03-12T03:23:17.221Z,101464.20
2019-03-12T03:25:45.923Z,101463.87
2019-03-12T03:28:14.662Z,101469.62
2019-03-12T03:30:43.249Z,101478.83
2019-03-12T03:33:11.862Z,101472.64
2019-03-12T03:35:40.401Z,101473.55
2019-03-12T03:38:09.010Z,101475.72
2019-03-12T03:40:37.576Z,101477.27
2019-03-12T03:43:06.240Z,101479.31
2019-03-12T03:45:34.905Z,101478.80
2019-03-12T03:48:03.716Z,101472.09
2019-03-12T03:50:32.313Z,101471.19
2019-03-12T03:53:00.931Z,101471.18
2019-03-12T03:55:29.481Z,101466.95
2019-03-12T03:57:58.098Z,101468.25
2019-03-12T04:00:26.929Z,101471.79
2019-03-12T04:02:55.580Z,101471.84
2019-03-12T04:05:24.201Z,101470.83
2019-03-12T04:07:52.744Z,101479.38
2019-03-12T04:10:21.293Z,101481.50
2019-03-12T04:12:50.104Z,101480.91
2019-03-12T04:15:19.249Z,101482.31
2019-03-12T04:17:48.087Z,101479.02
2019-03-12T04:20:18.111Z,101483.39
2019-03-12T04:22:46.700Z,101482.98
2019-03-12T04:25:15.240Z,101484.36
2019-03-12T04:27:43.942Z,101483.92
2019-03-12T04:30:17.401Z,101485.27
2019-03-12T04:32:46.328Z,101492.33
2019-03-12T04:35:32.967Z,101500.05
2019-03-12T04:38:01.568Z,101487.52
2019-03-12T04:40:30.093Z,101498.52
2019-03-12T04:42:58.956Z,101500.78
2019-03-12T04:45:27.586Z,101493.33
2019-03-12T04:47:56.168Z,101494.84
2019-03-12T04:50:24.755Z,101494.77
2019-03-12T04:52:53.343Z,101482.62
2019-03-12T04:55:21.847Z,101484.52
2019-03-12T04:57:50.398Z,101489.06
2019-03-12T05:00:20.200Z,101482.31
2019-03-12T05:02:48.927Z,101487.23
2019-03-12T05:05:17.550Z,101481.81
2019-03-12T05:07:46.234Z,101483.03
2019-03-12T05:10:16.167Z,101481.53
2019-03-12T05:12:45.031Z,101489.83
2019-03-12T05:15:15.386Z,101490.48
2019-03-12T05:17:44.867Z,101486.38
2019-03-12T05:20:15.023Z,101483.66
2019-03-12T05:22:43.734Z,101486.66
2019-03-12T05:25:15.675Z,101492.02
2019-03-12T05:27:44.420Z,101493.38
2019-03-12T05:30:18.179Z,101499.06
2019-03-12T05:32:46.716Z,101509.48
2019-03-12T05:35:15.880Z,101509.16
2019-03-12T05:37:45.277Z,101509.62
2019-03-12T05:40:14.954Z,101509.02
2019-03-12T05:42:43.791Z,101508.58
2019-03-12T05:45:17.173Z,101514.20
2019-03-12T05:47:45.710Z,101519.96
2019-03-12T05:50:18.476Z,101516.92
2019-03-12T05:52:49.037Z,101520.16
2019-03-12T05:55:17.547Z,101525.98
2019-03-12T05:57:46.202Z,101526.56
2019-03-12T06:00:21.171Z,101517.23
2019-03-12T06:02:49.687Z,101512.88
2019-03-12T06:05:18.298Z,101522.13
2019-03-12T06:07:46.876Z,101522.19
2019-03-12T06:10:16.317Z,101521.98
2019-03-12T06:12:44.862Z,101518.58
2019-03-12T06:15:17.362Z,101513.78
2019-03-12T06:17:46.142Z,101520.09
2019-03-12T06:20:15.713Z,101514.28
2019-03-12T06:22:44.325Z,101518.14
2019-03-12T06:25:14.833Z,101526.33
2019-03-12T06:27:43.912Z,101522.27
2019-03-12T06:30:17.840Z,101507.84
2019-03-12T06:33:06.412Z,101503.94
2019-03-12T06:35:54.490Z,101505.27
2019-03-12T06:38:37.250Z,101505.20
2019-03-12T06:41:19.193Z,101504.74
2019-03-12T06:43:49.367Z,101507.70
2019-03-12T06:46:19.623Z,101501.84
2019-03-12T06:48:55.752Z,101503.25
2019-03-12T06:51:42.447Z,101511.36
2019-03-12T06:54:18.409Z,101508.81
2019-03-12T06:57:03.833Z,101511.98
2019-03-12T06:59:34.019Z,101510.97
2019-03-12T07:02:10.035Z,101511.80
2019-03-12T07:04:45.678Z,101515.05
2019-03-12T07:07:18.739Z,101522.84
2019-03-12T07:09:57.222Z,101512.16
2019-03-12T07:12:36.883Z,101515.35
2019-03-12T07:15:13.008Z,101511.89
2019-03-12T07:17:46.000Z,101515.76
2019-03-12T07:20:19.087Z,101514.34
2019-03-12T07:22:49.331Z,101510.56
2019-03-12T07:25:22.525Z,101509.16
2019-03-12T07:27:52.843Z,101514.47
2019-03-12T07:30:29.174Z,101511.04
2019-03-12T07:33:08.168Z,101509.66
2019-03-12T07:35:54.905Z,101509.67
2019-03-12T07:38:27.919Z,101503.39
2019-03-12T07:41:03.874Z,101499.91
2019-03-12T07:43:51.774Z,101496.92
2019-03-12T07:46:28.020Z,101496.70
2019-03-12T07:49:03.956Z,101497.60
2019-03-12T07:51:52.657Z,101489.27
2019-03-12T07:54:22.859Z,101496.92
2019-03-12T07:56:58.596Z,101499.42
2019-03-12T07:59:45.214Z,101489.67
2019-03-12T08:02:21.607Z,101490.20
2019-03-12T08:04:51.871Z,101490.01
2019-03-12T08:07:31.095Z,101494.78
2019-03-12T08:10:09.872Z,101486.87
2019-03-12T08:12:40.199Z,101493.64
2019-03-12T08:15:23.320Z,101488.09
2019-03-12T08:17:53.375Z,101489.38
2019-03-12T08:20:29.810Z,101483.89
2019-03-12T08:23:12.377Z,101480.39
2019-03-12T08:25:43.928Z,101481.55
2019-03-12T08:28:20.655Z,101470.44
2019-03-12T08:30:53.705Z,101475.45
2019-03-12T08:33:26.984Z,101468.25
2019-03-12T08:36:03.100Z,101462.05
2019-03-12T08:38:49.182Z,101471.60
2019-03-12T08:41:19.454Z,101475.64
2019-03-12T08:43:49.694Z,101468.41
2019-03-12T08:46:36.293Z,101468.75
2019-03-12T08:49:15.557Z,101468.81
2019-03-12T08:51:48.318Z,101470.03
2019-03-12T08:54:22.092Z,101460.52
2019-03-12T08:57:01.550Z,101469.34
2019-03-12T08:59:34.573Z,101466.36
2019-03-12T09:02:10.551Z,101463.39
2019-03-12T09:04:53.975Z,101467.00
2019-03-12T09:07:24.238Z,101461.52
2019-03-12T09:10:03.761Z,101465.57
2019-03-12T09:12:45.832Z,101463.29
2019-03-12T09:15:16.116Z,101462.39
2019-03-12T09:17:46.319Z,101451.96
2019-03-12T09:20:32.595Z,101445.47
2019-03-12T09:23:02.842Z,101444.36
2019-03-12T09:25:39.088Z,101435.28
2019-03-12T09:28:24.706Z,101431.13
2019-03-12T09:31:04.419Z,101429.13
2019-03-12T09:33:40.550Z,101427.42
2019-03-12T09:36:26.533Z,101415.38
2019-03-12T09:39:08.664Z,101410.58
2019-03-12T09:41:38.927Z,101410.90
2019-03-12T09:44:25.800Z,101407.19
2019-03-12T09:46:56.035Z,101408.55
2019-03-12T09:49:28.703Z,101398.39
2019-03-12T09:52:04.638Z,101399.97
2019-03-12T09:54:50.083Z,101385.69
2019-03-12T09:57:29.813Z,101381.49
2019-03-12T10:00:00.013Z,101378.72
2019-03-12T10:02:36.024Z,101370.36
2019-03-12T10:05:17.671Z,101370.27
2019-03-12T10:07:48.182Z,101371.12
2019-03-12T10:10:24.065Z,101367.44
2019-03-12T10:12:54.259Z,101361.45
2019-03-12T10:15:42.634Z,101363.95
2019-03-12T10:18:27.819Z,101360.19
2019-03-12T10:21:00.818Z,101345.55
2019-03-12T10:23:47.206Z,101338.44
2019-03-12T10:26:23.959Z,101353.36
2019-03-12T10:28:54.158Z,101339.66
2019-03-12T10:31:24.432Z,101328.10
2019-03-12T10:34:11.286Z,101326.47
2019-03-12T10:36:44.861Z,101326.48
2019-03-12T10:40:09.583Z,101315.88
2019-03-12T10:42:46.646Z,101324.59
2019-03-12T10:45:19.743Z,101333.72
2019-03-12T10:47:56.745Z,101321.81
2019-03-12T10:50:25.478Z,101316.48
2019-03-12T10:52:54.245Z,101318.53
2019-03-12T10:55:22.887Z,101310.86
2019-03-12T10:57:52.620Z,101307.02
2019-03-12T11:00:21.205Z,101300.45
2019-03-12T11:02:50.084Z,101308.64
2019-03-12T11:05:19.262Z,101297.99
2019-03-12T11:07:48.023Z,101285.66
2019-03-12T11:10:19.043Z,101286.73
2019-03-12T11:12:47.765Z,101270.09
2019-03-12T11:15:36.055Z,101265.67
2019-03-12T11:18:04.814Z,101262.20
2019-03-12T11:20:33.425Z,101262.38
2019-03-12T11:23:01.943Z,101258.27
2019-03-12T11:28:08.406Z,101240.75
2019-03-12T11:30:37.307Z,101249.48
2019-03-12T11:33:05.887Z,101245.41
2019-03-12T11:35:39.415Z,101237.46
2019-03-12T11:38:05.431Z,101232.55
2019-03-12T11:40:33.993Z,101230.70
2019-03-12T11:43:02.594Z,101230.23
2019-03-12T11:45:36.860Z,101226.34
2019-03-12T11:48:01.579Z,101220.47
2019-03-12T11:50:31.071Z,101218.41
2019-03-12T11:53:00.684Z,101209.80
2019-03-12T11:55:29.932Z,101212.00
2019-03-12T11:57:58.464Z,101202.27
2019-03-12T12:00:32.056Z,101210.56
2019-03-12T12:03:02.860Z,101205.58
2019-03-12T12:05:31.583Z,101189.26
2019-03-12T12:08:00.368Z,101178.12
2019-03-12T12:10:29.179Z,101167.90
2019-03-12T12:12:58.146Z,101177.28
2019-03-12T12:15:27.209Z,101171.58
2019-03-12T12:17:55.711Z,101158.66
2019-03-12T12:20:30.132Z,101152.83
2019-03-12T12:22:55.484Z,101148.27
2019-03-12T12:25:24.042Z,101147.78
2019-03-12T12:27:52.694Z,101149.88
2019-03-12T12:30:24.606Z,101129.28
2019-03-12T12:32:53.203Z,101121.61
2019-03-12T12:35:21.938Z,101114.11
2019-03-12T12:37:50.678Z,101099.50
2019-03-12T12:40:22.932Z,101093.12
2019-03-12T12:42:51.451Z,101086.38
2019-03-12T12:45:34.678Z,101100.03
2019-03-12T12:48:05.042Z,101086.79
2019-03-12T12:50:33.755Z,101089.25
2019-03-12T12:53:02.440Z,101090.66
2019-03-12T12:55:31.106Z,101083.89
2019-03-12T12:57:59.739Z,101080.31
2019-03-12T13:00:30.013Z,101071.36
2019-03-12T13:03:01.389Z,101067.81
2019-03-12T13:05:32.143Z,101064.19
2019-03-12T13:08:01.005Z,101052.47
2019-03-12T13:10:34.458Z,101050.21
2019-03-12T13:13:03.138Z,101046.86
2019-03-12T13:15:31.752Z,101039.89
2019-03-12T13:18:00.404Z,101037.52
2019-03-12T13:20:29.001Z,101033.29
2019-03-12T13:22:57.603Z,101026.70
2019-03-12T13:25:26.119Z,101035.17
2019-03-12T13:27:54.766Z,101022.97
2019-03-12T13:30:24.780Z,101016.94
2019-03-12T13:32:53.401Z,101012.75
2019-03-12T13:35:22.078Z,101013.52
2019-03-12T13:37:50.799Z,101000.77
2019-03-12T13:40:24.319Z,100991.67
2019-03-12T13:42:53.511Z,100982.19
2019-03-12T13:45:24.718Z,100986.38
2019-03-12T13:47:53.544Z,100986.31
2019-03-12T13:50:22.454Z,100981.61
2019-03-12T13:52:51.394Z,100973.38
2019-03-12T13:55:20.318Z,100968.92
2019-03-12T13:57:48.937Z,100972.72
2019-03-12T14:00:22.788Z,100978.11
2019-03-12T14:02:51.391Z,100958.94
2019-03-12T14:05:20.058Z,100948.18
2019-03-12T14:07:48.644Z,100950.20
2019-03-12T14:10:25.161Z,100945.36
2019-03-12T14:12:58.130Z,100938.83
2019-03-12T14:15:32.232Z,100926.03
2019-03-12T14:18:00.970Z,100927.22
2019-03-12T14:20:50.831Z,100929.91
2019-03-12T14:23:25.033Z,100917.48
2019-03-12T14:25:53.633Z,100909.80
2019-03-12T14:28:23.466Z,100899.03
2019-03-12T14:30:52.180Z,100902.94
2019-03-12T14:33:21.293Z,100892.62
2019-03-12T14:35:51.874Z,100882.83
2019-03-12T14:38:20.467Z,100873.91
2019-03-12T14:40:49.293Z,100867.77
2019-03-12T14:43:17.950Z,100866.00
2019-03-12T14:45:51.164Z,100864.83
2019-03-12T14:48:40.363Z,100847.68
2019-03-12T14:51:14.705Z,100849.70
2019-03-12T14:53:45.787Z,100846.75
2019-03-12T14:56:14.291Z,100837.47
2019-03-12T14:58:42.967Z,100833.84
2019-03-12T15:01:11.577Z,100835.45
2019-03-12T15:03:40.345Z,100834.60
2019-03-12T15:06:08.928Z,100822.04
2019-03-12T15:08:37.592Z,100815.53
2019-03-12T15:11:06.175Z,100813.75
2019-03-12T15:13:35.228Z,100801.39
2019-03-12T15:16:03.769Z,100792.63
2019-03-12T15:18:32.382Z,100789.06
2019-03-12T15:21:01.252Z,100780.49
2019-03-12T15:23:29.959Z,100778.61
2019-03-12T15:25:58.483Z,100774.27
2019-03-12T15:28:27.134Z,100766.64
2019-03-12T15:30:55.771Z,100755.55
2019-03-12T15:33:24.405Z,100748.45
2019-03-12T15:35:53.930Z,100745.78
2019-03-12T15:38:22.667Z,100734.84
2019-03-12T15:40:51.268Z,100728.30
2019-03-12T15:43:19.851Z,100730.19
2019-03-12T15:45:49.501Z,100723.11
2019-03-12T15:48:21.551Z,100709.45
2019-03-12T15:50:48.551Z,100714.33
2019-03-12T15:53:17.257Z,100694.94
2019-03-12T15:55:45.863Z,100699.28
2019-03-12T15:58:14.997Z,100697.45
2019-03-12T16:00:43.606Z,100688.16
2019-03-12T16:03:12.281Z,100688.16
2019-03-12T16:05:40.901Z,100677.27
2019-03-12T16:08:09.838Z,100670.41
2019-03-12T16:10:38.883Z,100666.09
2019-03-12T16:13:07.963Z,100652.17
2019-03-12T16:15:37.786Z,100653.81
2019-03-12T16:18:06.943Z,100638.81
2019-03-12T16:20:35.630Z,100633.09
2019-03-12T16:23:04.360Z,100621.09
2019-03-12T16:25:33.136Z,100599.02
2019-03-12T16:28:01.737Z,100580.98
2019-03-12T16:30:30.356Z,100571.17
2019-03-12T16:32:58.899Z,100550.46
2019-03-12T16:35:29.421Z,100535.44
2019-03-12T16:37:58.425Z,100534.37
2019-03-12T16:40:27.405Z,100534.39
2019-03-12T16:42:56.007Z,100530.59
2019-03-12T16:45:25.189Z,100527.06
2019-03-12T16:47:54.536Z,100520.24
2019-03-12T16:50:23.264Z,100507.16
2019-03-12T16:52:51.940Z,100499.00
2019-03-12T16:55:21.031Z,100498.99
2019-03-12T16:57:49.889Z,100483.44
2019-03-12T17:00:20.364Z,100479.61
2019-03-12T17:02:49.136Z,100481.00
2019-03-12T17:05:17.749Z,100474.48
2019-03-12T17:07:46.389Z,100478.02
2019-03-12T17:10:17.514Z,100474.74
2019-03-12T17:12:46.229Z,100464.92
2019-03-12T17:15:25.961Z,100463.58
2019-03-12T17:17:54.583Z,100468.77
2019-03-12T17:20:23.438Z,100464.13
2019-03-12T17:22:52.051Z,100460.58
2019-03-12T17:25:21.204Z,100450.75
2019-03-12T17:27:51.630Z,100450.20
2019-03-12T17:30:24.927Z,100442.02
2019-03-12T17:32:53.712Z,100429.19
2019-03-12T17:35:34.949Z,100419.09
2019-03-12T17:38:03.487Z,100410.11
2019-03-12T17:40:32.430Z,100410.63
2019-03-12T17:43:01.532Z,100408.48
2019-03-12T17:45:30.128Z,100406.05
2019-03-12T17:47:58.867Z,100404.95
2019-03-12T17:50:27.563Z,100401.92
2019-03-12T17:52:56.242Z,100388.30
2019-03-12T17:55:24.876Z,100379.60
2019-03-12T17:57:53.592Z,100376.33
2019-03-12T18:00:28.046Z,100366.50
2019-03-12T18:02:55.425Z,100363.50
2019-03-12T18:05:24.396Z,100354.80
2019-03-12T18:07:53.150Z,100344.16
2019-03-12T18:10:21.776Z,100337.37
2019-03-12T18:12:50.475Z,100337.34
2019-03-12T18:15:22.321Z,100333.82
2019-03-12T18:17:50.969Z,100328.64
2019-03-12T18:20:24.018Z,100322.09
2019-03-12T18:22:52.691Z,100306.30
2019-03-12T18:25:30.601Z,100308.45
2019-03-12T18:27:59.179Z,100295.69
2019-03-12T18:30:28.141Z,100305.23
2019-03-12T18:32:56.898Z,100290.78
2019-03-12T18:35:25.516Z,100291.87
2019-03-12T18:37:54.219Z,100285.56
2019-03-12T18:40:24.164Z,100272.50
2019-03-12T18:42:52.933Z,100268.14
2019-03-12T18:45:24.737Z,100265.14
2019-03-12T18:47:53.933Z,100260.50
2019-03-12T18:50:22.543Z,100259.11
2019-03-12T18:52:51.396Z,100243.59
2019-03-12T18:55:32.229Z,100248.20
2019-03-12T18:58:01.753Z,100237.59
2019-03-12T19:00:30.459Z,100230.23
2019-03-12T19:02:59.243Z,100223.64
2019-03-12T19:05:28.461Z,100224.46
2019-03-12T19:07:57.695Z,100218.46
2019-03-12T19:10:26.751Z,100206.73
2019-03-12T19:12:55.801Z,100203.19
2019-03-12T19:15:24.455Z,100192.00
2019-03-12T19:17:53.854Z,100188.41
2019-03-12T19:20:22.438Z,100184.05
2019-03-12T19:22:51.092Z,100174.23
2019-03-12T19:25:22.469Z,100170.14
2019-03-12T19:27:59.668Z,100158.14
2019-03-12T19:30:21.758Z,100149.72
2019-03-12T19:32:54.628Z,100133.62
2019-03-12T19:35:25.930Z,100119.98
2019-03-12T19:37:54.801Z,100113.45
2019-03-12T19:40:26.798Z,100105.84
2019-03-12T19:42:56.756Z,100097.12
2019-03-12T19:45:25.459Z,100090.59
2019-03-12T19:47:54.655Z,100084.90
2019-03-12T19:50:24.362Z,100071.81
2019-03-12T19:52:53.377Z,100068.90
2019-03-12T19:55:25.731Z,100059.36
2019-03-12T19:57:55.014Z,100044.17
2019-03-12T20:00:25.489Z,100039.05
2019-03-12T20:02:55.387Z,100030.78
2019-03-12T20:05:24.461Z,100022.37
2019-03-12T20:07:54.489Z,100021.05
2019-03-12T20:10:41.022Z,100025.20
2019-03-12T20:13:15.516Z,100009.92
2019-03-12T20:16:04.595Z,99998.75
2019-03-12T20:18:56.511Z,99986.80
2019-03-12T20:21:57.728Z,99980.30
2019-03-12T20:24:38.637Z,99966.09
2019-03-12T20:27:34.549Z,99959.59
2019-03-12T20:30:26.394Z,99963.19
2019-03-12T20:33:17.110Z,99956.87
2019-03-12T20:36:21.073Z,99946.78
2019-03-12T20:39:11.338Z,99948.97
2019-03-12T20:42:02.607Z,99939.24
2019-03-12T20:45:08.669Z,99940.56
2019-03-12T20:48:04.601Z,99927.77
2019-03-12T20:50:48.329Z,99914.73
2019-03-12T20:53:43.949Z,99910.95
2019-03-12T20:56:43.030Z,99897.83
2019-03-12T20:59:34.080Z,99872.55
2019-03-12T21:02:25.978Z,99876.91
2019-03-12T21:05:24.224Z,99868.73
2019-03-12T21:08:29.179Z,99858.38
2019-03-12T21:11:34.389Z,99849.92
2019-03-12T21:14:09.846Z,99843.73
2019-03-12T21:16:48.181Z,99838.76
2019-03-12T21:19:51.952Z,99832.98
2019-03-12T21:22:41.881Z,99830.00
2019-03-12T21:25:34.951Z,99824.04
2019-03-12T21:28:24.788Z,99808.24
2019-03-12T21:30:53.827Z,99802.19
2019-03-12T21:33:22.461Z,99800.78
2019-03-12T21:35:51.184Z,99791.52
2019-03-12T21:38:20.038Z,99783.61
2019-03-12T21:40:48.588Z,99776.30
2019-03-12T21:43:17.280Z,99767.81
2019-03-12T21:45:46.486Z,99767.00
2019-03-12T21:48:15.361Z,99764.27
2019-03-12T21:50:45.056Z,99767.52
2019-03-12T21:53:13.645Z,99759.64
2019-03-12T21:55:42.963Z,99751.45
2019-03-12T21:58:12.340Z,99742.98
2019-03-12T22:00:40.907Z,99735.05
2019-03-12T22:03:09.514Z,99737.23
2019-03-12T22:05:38.400Z,99725.28
2019-03-12T22:08:09.203Z,99717.88
2019-03-12T22:10:37.873Z,99712.42
2019-03-12T22:13:06.410Z,99718.70
2019-03-12T22:15:34.997Z,99711.07
2019-03-12T22:18:04.291Z,99710.51
2019-03-12T22:20:32.858Z,99706.92
2019-03-12T22:23:18.962Z,99710.72
2019-03-12T22:25:47.755Z,99716.72
2019-03-12T22:28:16.340Z,99705.32
2019-03-12T22:30:45.116Z,99687.61
2019-03-12T22:33:13.711Z,99693.34
2019-03-12T22:35:42.381Z,99700.63
2019-03-12T22:38:11.355Z,99673.72
2019-03-12T22:40:39.963Z,99661.45
2019-03-12T22:43:08.563Z,99663.89
2019-03-12T22:45:37.140Z,99654.92
2019-03-12T22:48:07.202Z,99651.92
2019-03-12T22:50:36.112Z,99651.23
2019-03-12T22:53:04.629Z,99644.61
2019-03-12T22:55:33.218Z,99645.71
2019-03-12T22:58:01.733Z,99653.53
2019-03-12T23:00:31.997Z,99637.77
2019-03-12T23:03:00.581Z,99628.66
2019-03-12T23:05:29.182Z,99623.44
2019-03-12T23:07:57.671Z,99613.49
2019-03-12T23:10:26.503Z,99606.28
2019-03-12T23:12:55.094Z,99600.85
2019-03-12T23:15:23.871Z,99587.02
2019-03-12T23:17:52.462Z,99569.03
2019-03-12T23:20:21.270Z,99565.66
2019-03-12T23:22:52.268Z,99577.14
2019-03-12T23:25:20.435Z,99579.03
2019-03-12T23:27:49.011Z,99569.22
2019-03-12T23:30:19.500Z,99568.67
2019-03-12T23:32:48.417Z,99583.09
2019-03-12T23:35:17.350Z,99579.55
2019-03-12T23:37:45.901Z,99574.84
2019-03-12T23:40:18.813Z,99554.95
2019-03-12T23:42:47.464Z,99527.67
2019-03-12T23:45:16.982Z,99519.64
2019-03-12T23:47:45.845Z,99513.83
2019-03-12T23:50:16.001Z,99505.77
2019-03-12T23:52:44.631Z,99489.33
2019-03-12T23:55:14.967Z,99499.44
2019-03-12T23:57:43.564Z,99486.47
